Lysander, New York
Current Conditions -  °F | °C
As of 8:54 AM on Sunday 25 Jan 2015 (Local Time) from KFZY Reporting Station
Light Snow Light Snow  
Wind Chill:   Ceiling: 2000
Heat Index: 16°   Visibility: 2.5mi
Dew Point:   Wind: 14mph
Humidity: 68%   Direction: 350°N
Pressure: 29.83"   Gusts: 21mph
Location:  43.1825°N, 76.3664°W
Report Text: KFZY 251354Z AUTO 35012G18KT 2 1/2SM -SN OVC020 M09/M14 A2983 RMK AO2 SNB1259 SLP109 P0000 T10891139
Loading
Personal Weather Stations






























Interactive Weather Map New forecast layout! Learn more

10-Day Weather Forecast

Advertisements
Track Severe Weather on mobile